Time;durP1;ratioP1;P1;durP2;ratioP2;P2;SDS_P1;SDS_P2;PMS_P1;PMS_P2;Temp;Humidity;BMP_temperature;BMP_pressure;BME280_temperature;BME280_humidity;BME280_pressure;Samples;Min_cycle;Max_cycle;Signal;HPM_P1;HPM_P2
2022/05/15 00:01:48;;;;;;;27.02;6.70;;;;;;;14.04;78.09;102023.88;5066567;28;20059;-89
2022/05/15 00:04:15;;;;;;;34.53;7.75;;;;;;;14.01;78.46;102025.00;5056855;28;20036;-89
2022/05/15 00:06:40;;;;;;;29.77;7.22;;;;;;;13.97;79.01;102012.88;5039525;28;20028;-91
2022/05/15 00:09:06;;;;;;;30.08;7.82;;;;;;;13.95;78.57;102021.09;5038225;28;20032;-88
2022/05/15 00:11:32;;;;;;;34.22;7.75;;;;;;;13.96;78.76;102017.41;5039093;28;20021;-91
2022/05/15 00:13:57;;;;;;;36.70;7.93;;;;;;;13.91;79.83;102016.19;5022039;28;20163;-92
2022/05/15 00:16:24;;;;;;;34.83;7.93;;;;;;;13.89;79.15;102021.72;5039743;28;20128;-89
2022/05/15 00:18:50;;;;;;;32.13;7.35;;;;;;;13.85;79.14;102014.09;5047432;28;20371;-87
2022/05/15 00:21:16;;;;;;;28.25;7.47;;;;;;;13.82;79.54;102015.28;5033511;28;20021;-85
2022/05/15 00:23:43;;;;;;;33.42;8.18;;;;;;;13.79;79.54;102016.41;5036785;28;20073;-85
2022/05/15 00:26:09;;;;;;;28.63;7.15;;;;;;;13.75;79.59;102011.53;5037679;28;20403;-85
2022/05/15 00:28:34;;;;;;;37.20;7.93;;;;;;;13.74;80.00;102010.66;5048422;28;20032;-85
2022/05/15 00:30:59;;;;;;;28.88;7.47;;;;;;;13.69;79.87;102010.28;5059264;28;20037;-88
2022/05/15 00:33:25;;;;;;;33.88;7.70;;;;;;;13.69;80.23;102010.28;5042005;28;20032;-89
2022/05/15 00:35:52;;;;;;;37.88;8.57;;;;;;;13.66;80.15;102001.69;5060295;28;20339;-89
2022/05/15 00:38:18;;;;;;;32.35;8.93;;;;;;;13.60;81.13;102001.28;5058611;28;20024;-90
2022/05/15 00:40:46;;;;;;;30.85;7.72;;;;;;;13.56;81.16;101996.38;5059405;28;20046;-90
2022/05/15 00:43:14;;;;;;;28.63;7.18;;;;;;;13.51;81.62;102002.22;5058463;28;20241;-90
2022/05/15 00:45:39;;;;;;;33.35;7.80;;;;;;;13.50;81.73;102005.88;5040705;28;20029;-89
2022/05/15 00:48:05;;;;;;;29.30;6.70;;;;;;;13.43;81.15;101986.88;5037977;28;20020;-89
2022/05/15 00:50:33;;;;;;;39.50;7.78;;;;;;;13.42;80.77;101985.19;5038111;28;20116;-88
2022/05/15 00:53:05;;;;;;;30.67;7.45;;;;;;;13.37;81.47;101990.19;5040852;28;20100;-90
2022/05/15 00:55:37;;;;;;;;;;;;;;;13.52;78.31;101995.00;5059098;28;20025;-89
2022/05/15 00:58:12;;;;;;;32.33;7.25;;;;;;;13.41;81.04;101996.09;5060204;28;20447;-89
2022/05/15 01:00:40;;;;;;;29.75;6.95;;;;;;;13.36;81.28;101991.16;5059954;28;20462;-89
2022/05/15 01:03:12;;;;;;;34.92;6.97;;;;;;;13.33;81.41;101994.13;5058687;28;20029;-88
2022/05/15 01:05:44;;;;;;;31.23;6.70;;;;;;;13.36;80.76;101984.97;5044088;28;20498;-89
2022/05/15 01:08:10;;;;;;;36.92;7.13;;;;;;;13.29;80.96;101992.72;5039721;28;20052;-86
2022/05/15 01:10:38;;;;;;;31.95;6.38;;;;;;;13.28;81.42;101977.63;5041397;28;20491;-87
2022/05/15 01:13:04;;;;;;;25.02;6.35;;;;;;;13.28;81.25;101988.34;5040484;28;20025;-87
2022/05/15 01:15:32;;;;;;;33.22;7.43;;;;;;;13.29;81.57;101984.69;5037100;28;20526;-87
2022/05/15 01:17:58;;;;;;;30.80;6.70;;;;;;;13.29;81.28;101990.06;5054016;28;20020;-87
2022/05/15 01:20:26;;;;;;;36.30;6.60;;;;;;;13.28;81.60;101996.41;5058584;28;20487;-88
2022/05/15 01:22:53;;;;;;;35.92;7.05;;;;;;;13.23;81.58;101996.84;5060147;28;20446;-87
2022/05/15 01:25:24;;;;;;;25.30;5.97;;;;;;;13.18;82.27;101999.13;5061996;28;20020;-84
2022/05/15 01:27:55;;;;;;;34.00;6.65;;;;;;;13.20;82.21;101997.16;5061013;28;20057;-84
2022/05/15 01:30:22;;;;;;;40.95;6.70;;;;;;;13.14;82.24;101991.56;5061380;28;20486;-85
2022/05/15 01:32:47;;;;;;;32.53;6.45;;;;;;;13.13;82.47;101997.91;5060121;28;20032;-85
2022/05/15 01:35:13;;;;;;;32.03;6.65;;;;;;;13.15;82.51;101994.09;5041677;28;20507;-85
2022/05/15 01:37:38;;;;;;;25.85;6.18;;;;;;;13.11;82.85;102003.41;5039700;28;20047;-84
2022/05/15 01:40:04;;;;;;;34.03;6.82;;;;;;;13.06;82.92;101998.50;5051765;28;20332;-84
2022/05/15 01:42:30;;;;;;;38.15;7.20;;;;;;;13.07;82.95;101999.34;5041988;28;20040;-84
2022/05/15 01:44:56;;;;;;;33.03;6.50;;;;;;;13.02;82.82;101991.75;5051379;28;20107;-83
2022/05/15 01:47:21;;;;;;;29.23;6.35;;;;;;;13.04;83.05;101988.91;5042162;28;20451;-83
2022/05/15 01:49:46;;;;;;;33.55;6.53;;;;;;;13.02;83.30;101988.22;5061372;28;20021;-83
2022/05/15 01:52:12;;;;;;;29.70;6.43;;;;;;;13.00;83.76;101990.19;5060009;28;20086;-83
2022/05/15 01:54:38;;;;;;;29.98;6.38;;;;;;;12.96;83.23;101991.50;5061241;28;20478;-83
2022/05/15 01:57:04;;;;;;;30.23;6.47;;;;;;;12.97;83.42;101986.00;5059975;28;20423;-82
2022/05/15 01:59:30;;;;;;;30.80;5.97;;;;;;;12.96;84.29;101991.50;5059873;28;20427;-82
2022/05/15 02:01:56;;;;;;;32.90;6.03;;;;;;;12.97;83.64;101985.16;5061017;28;20056;-82
2022/05/15 02:04:21;;;;;;;27.27;5.65;;;;;;;12.98;83.70;101992.19;5056611;28;20385;-82
2022/05/15 02:06:47;;;;;;;31.02;6.13;;;;;;;12.91;83.81;101978.53;5038560;28;20029;-82
2022/05/15 02:09:12;;;;;;;28.25;6.22;;;;;;;12.93;83.74;101987.25;5038203;28;20431;-82
2022/05/15 02:11:38;;;;;;;26.88;5.85;;;;;;;12.90;84.34;101978.66;5038242;28;20063;-82
2022/05/15 02:14:04;;;;;;;31.92;6.75;;;;;;;12.88;83.68;101970.78;5039297;28;20021;-82
2022/05/15 02:16:31;;;;;;;38.95;6.22;;;;;;;12.84;84.07;101975.59;5039675;28;20443;-82
2022/05/15 02:18:56;;;;;;;26.52;6.18;;;;;;;12.87;84.51;101982.50;5041777;28;20380;-83
2022/05/15 02:21:22;;;;;;;36.08;6.40;;;;;;;12.82;83.98;101972.22;5041943;28;20029;-82
2022/05/15 02:23:47;;;;;;;35.20;6.28;;;;;;;12.82;84.10;101979.44;5042593;28;20361;-83
2022/05/15 02:26:12;;;;;;;33.90;6.60;;;;;;;12.82;84.14;101977.59;5041841;28;20083;-83
2022/05/15 02:28:38;;;;;;;31.98;6.13;;;;;;;12.81;84.13;101986.63;5043661;28;20445;-84
2022/05/15 02:31:04;;;;;;;32.22;6.30;;;;;;;12.77;84.12;101977.19;5043045;28;20024;-82
2022/05/15 02:33:29;;;;;;;31.15;5.90;;;;;;;12.75;84.51;101979.19;5025747;28;20024;-85
2022/05/15 02:35:55;;;;;;;36.42;6.15;;;;;;;12.76;84.81;101980.84;5045829;28;20036;-85
2022/05/15 02:38:20;;;;;;;30.88;6.20;;;;;;;12.77;84.77;101989.75;5043123;28;20132;-83
2022/05/15 02:40:45;;;;;;;37.42;5.93;;;;;;;12.72;84.75;101981.31;5043963;28;20033;-83
2022/05/15 02:43:11;;;;;;;33.42;6.60;;;;;;;12.70;84.62;101978.78;5045473;28;20993;-83
2022/05/15 02:45:36;;;;;;;35.90;6.05;;;;;;;12.68;84.89;101970.03;5048489;28;20085;-83
2022/05/15 02:48:02;;;;;;;29.27;5.97;;;;;;;12.66;85.41;101972.88;5041549;28;20016;-83
2022/05/15 02:53:11;;;;;;;33.33;6.47;;;;;;;12.61;85.83;101976.97;5040455;28;20483;-87
2022/05/15 02:55:37;;;;;;;31.95;5.95;;;;;;;12.56;85.61;101966.69;5039848;28;20363;-88
2022/05/15 02:58:03;;;;;;;35.65;6.70;;;;;;;12.54;85.92;101971.34;5041368;28;20021;-88
2022/05/15 03:00:28;;;;;;;33.22;5.78;;;;;;;12.49;86.34;101970.94;5040811;28;20021;-88
2022/05/15 03:02:54;;;;;;;35.47;5.93;;;;;;;12.46;86.26;101965.88;5040583;28;20518;-88
2022/05/15 03:05:21;;;;;;;36.13;6.53;;;;;;;12.43;86.81;101966.16;5042216;28;20024;-88
2022/05/15 03:07:47;;;;;;;32.20;6.10;;;;;;;12.41;86.84;101963.63;5059387;28;20024;-89
2022/05/15 03:10:15;;;;;;;46.15;6.82;;;;;;;12.40;90.10;101958.41;5059633;28;20506;-88
2022/05/15 03:12:41;;;;;;;40.13;7.10;;;;;;;12.38;88.50;101957.72;5059400;28;20025;-88
2022/05/15 03:15:07;;;;;;;38.17;6.82;;;;;;;12.31;91.23;101957.47;5058166;28;20583;-87
2022/05/15 03:17:34;;;;;;;44.78;6.88;;;;;;;12.26;91.01;101965.94;5060157;28;20077;-88
2022/05/15 03:20:00;;;;;;;40.78;6.65;;;;;;;12.25;93.02;101963.38;5061257;28;20128;-90
2022/05/15 03:22:25;;;;;;;29.30;6.00;;;;;;;12.23;90.01;101957.34;5042275;28;20028;-91
2022/05/15 03:24:51;;;;;;;38.45;6.70;;;;;;;12.21;92.54;101959.31;5060354;28;20510;-91
2022/05/15 03:27:16;;;;;;;33.50;6.68;;;;;;;12.15;92.96;101971.44;5061410;28;20018;-91
2022/05/15 03:29:42;;;;;;;40.70;6.78;;;;;;;12.11;93.52;101965.53;5063449;28;20025;-91
2022/05/15 03:32:08;;;;;;;26.80;6.13;;;;;;;12.13;93.02;101955.53;5062474;28;20031;-91
2022/05/15 03:34:33;;;;;;;28.65;6.38;;;;;;;12.08;91.15;101957.81;5062581;28;20036;-91
2022/05/15 03:36:59;;;;;;;36.42;6.30;;;;;;;12.03;93.07;101954.72;5060179;28;20039;-89
2022/05/15 03:39:24;;;;;;;38.95;7.55;;;;;;;12.04;91.67;101953.72;5060374;28;20375;-91
2022/05/15 03:41:50;;;;;;;30.95;6.43;;;;;;;11.98;91.15;101948.91;5060736;28;20032;-91
2022/05/15 03:44:16;;;;;;;34.58;6.85;;;;;;;11.97;92.71;101949.09;5061527;28;20468;-86
2022/05/15 03:46:43;;;;;;;28.88;6.40;;;;;;;11.97;92.52;101951.75;5059176;28;20510;-90
2022/05/15 03:49:11;;;;;;;34.85;6.72;;;;;;;11.90;92.09;101948.78;5061150;28;20077;-90
2022/05/15 03:51:36;;;;;;;29.73;6.70;;;;;;;11.96;92.27;101953.56;5042275;28;20043;-91
2022/05/15 03:54:02;;;;;;;32.47;6.45;;;;;;;11.97;92.23;101951.75;5058811;28;20069;-89
2022/05/15 03:59:12;;;;;;;34.55;6.53;;;;;;;11.97;91.78;101951.75;5059771;28;20086;-88
2022/05/15 04:01:38;;;;;;;35.63;6.53;;;;;;;11.92;91.80;101952.19;5040603;28;20063;-88
2022/05/15 04:04:04;;;;;;;37.05;7.35;;;;;;;11.86;91.58;101944.69;5057894;28;20052;-88
2022/05/15 04:06:30;;;;;;;29.17;6.32;;;;;;;11.89;91.60;101950.59;5038747;28;20065;-88
2022/05/15 04:08:56;;;;;;;38.05;6.85;;;;;;;11.89;92.04;101950.59;5039329;28;20587;-88
2022/05/15 04:11:21;;;;;;;30.85;6.05;;;;;;;11.83;91.93;101948.50;5040487;28;20035;-88
2022/05/15 04:13:47;;;;;;;42.83;7.10;;;;;;;11.87;92.11;101954.41;5047259;28;20445;-88
2022/05/15 04:16:13;;;;;;;32.33;6.45;;;;;;;11.83;91.80;101951.19;5043219;28;20563;-86
2022/05/15 04:18:39;;;;;;;34.08;7.43;;;;;;;11.76;92.47;101953.56;5058927;28;20675;-87
2022/05/15 04:21:04;;;;;;;27.35;6.40;;;;;;;11.77;93.05;101949.06;5060348;28;20028;-86
2022/05/15 04:23:30;;;;;;;30.33;6.38;;;;;;;11.73;93.03;101953.84;5059048;28;20179;-87
2022/05/15 04:25:55;;;;;;;35.85;6.47;;;;;;;11.77;93.23;101967.78;5059672;28;20029;-89
2022/05/15 04:28:22;;;;;;;27.73;6.30;;;;;;;11.67;92.67;101958.91;5060439;28;20028;-89
2022/05/15 04:30:48;;;;;;;33.45;7.20;;;;;;;11.69;93.32;101968.50;5060802;28;20100;-90
2022/05/15 04:33:13;;;;;;;34.85;7.13;;;;;;;11.70;93.95;101964.84;5042998;28;20162;-89
2022/05/15 04:35:38;;;;;;;36.17;7.15;;;;;;;11.68;93.90;101961.47;5041350;28;20454;-90
2022/05/15 04:38:04;;;;;;;30.30;6.85;;;;;;;11.71;94.93;101958.50;5041088;28;20518;-90
2022/05/15 04:40:29;;;;;;;26.60;6.50;;;;;;;11.79;94.86;101955.09;5061326;28;20025;-91
2022/05/15 04:42:54;;;;;;;25.38;6.55;;;;;;;11.83;93.72;101951.19;5046491;28;20546;-91
2022/05/15 04:45:20;;;;;;;42.65;7.43;;;;;;;11.91;94.83;101948.66;5045710;28;20028;-90
2022/05/15 04:47:46;;;;;;;39.55;7.28;;;;;;;11.93;94.07;101954.72;5061735;28;20475;-91
2022/05/15 04:50:13;;;;;;;31.27;6.43;;;;;;;12.01;94.58;101955.84;5044223;28;20115;-89
2022/05/15 04:52:38;;;;;;;30.98;6.63;;;;;;;12.07;94.36;101956.09;5059942;28;20024;-88
2022/05/15 04:55:04;;;;;;;27.95;7.03;;;;;;;12.12;93.94;101956.50;5042954;28;20432;-88
2022/05/15 04:57:29;;;;;;;38.38;7.45;;;;;;;12.17;93.19;101966.81;5033613;28;20023;-88
2022/05/15 04:59:55;;;;;;;38.58;7.20;;;;;;;12.20;93.06;101963.81;5041795;28;20059;-88
2022/05/15 05:02:20;;;;;;;30.35;6.95;;;;;;;12.27;93.41;101964.94;5040381;28;20049;-88
2022/05/15 05:04:45;;;;;;;29.67;7.43;;;;;;;12.29;92.42;101959.44;5021948;28;20017;-87
2022/05/15 05:07:11;;;;;;;30.17;7.13;;;;;;;12.33;92.62;101950.13;5038563;28;20024;-88
2022/05/15 05:09:36;;;;;;;32.15;8.05;;;;;;;12.39;92.54;101962.06;5040588;28;20029;-87
2022/05/15 05:12:01;;;;;;;33.25;7.05;;;;;;;12.44;92.19;101963.34;5039184;28;20498;-88
2022/05/15 05:14:27;;;;;;;35.50;7.60;;;;;;;12.48;92.53;101966.56;5024741;28;20348;-88
2022/05/15 05:16:52;;;;;;;35.30;7.93;;;;;;;12.55;93.23;101966.84;5079804;28;20122;-90
2022/05/15 05:19:17;;;;;;;31.52;7.30;;;;;;;12.59;92.51;101965.53;5080476;28;20048;-90
2022/05/15 05:21:43;;;;;;;27.50;7.07;;;;;;;12.65;92.63;101971.16;5080458;28;20447;-89
2022/05/15 05:24:08;;;;;;;31.08;7.28;;;;;;;12.69;91.43;101969.91;5061530;28;20023;-90
2022/05/15 05:26:34;;;;;;;37.17;8.15;;;;;;;12.69;92.07;101959.19;5079483;28;20481;-90
2022/05/15 05:29:00;;;;;;;33.42;7.93;;;;;;;12.72;92.96;101954.50;5080837;28;20024;-90
2022/05/15 05:31:25;;;;;;;31.17;7.82;;;;;;;12.84;91.59;101964.88;5080738;28;20063;-91
2022/05/15 05:33:50;;;;;;;44.92;9.05;;;;;;;12.84;90.81;101964.88;5080744;28;20520;-90
2022/05/15 05:36:16;;;;;;;32.95;8.93;;;;;;;12.88;91.53;101954.69;5080798;28;20182;-90
2022/05/15 05:38:42;;;;;;;33.35;8.82;;;;;;;12.93;91.83;101960.44;5063719;28;20020;-88
2022/05/15 05:41:07;;;;;;;30.38;8.07;;;;;;;12.98;92.03;101965.38;5059381;28;20157;-87
2022/05/15 05:43:32;;;;;;;39.28;8.75;;;;;;;13.05;91.57;101959.28;5051914;28;20028;-88
2022/05/15 05:45:58;;;;;;;39.47;8.65;;;;;;;13.10;91.24;101957.97;5039541;28;20028;-89
2022/05/15 05:48:24;;;;;;;33.25;8.35;;;;;;;13.18;91.74;101958.06;5021257;28;20093;-90
2022/05/15 05:50:49;;;;;;;39.83;9.18;;;;;;;13.25;91.53;101957.31;5053357;28;20051;-88
2022/05/15 05:53:15;;;;;;;35.40;9.68;;;;;;;13.35;90.48;101964.47;5040768;28;20046;-87
2022/05/15 05:55:40;;;;;;;31.23;9.63;;;;;;;13.42;89.79;101962.88;5057584;28;20020;-88
2022/05/15 05:58:05;;;;;;;28.17;9.02;;;;;;;13.55;89.40;101973.22;5041531;28;20039;-87
2022/05/15 06:00:34;;;;;;;53.08;10.52;;;;;;;13.62;89.04;101968.94;5061032;28;20043;-88
2022/05/15 06:05:46;;;;;;;32.20;9.48;;;;;;;13.88;89.00;101968.16;5062670;28;20106;-87
2022/05/15 06:08:13;;;;;;;32.78;9.32;;;;;;;14.01;88.32;101963.22;5047600;28;20024;-89
2022/05/15 06:10:39;;;;;;;32.75;9.98;;;;;;;14.11;87.94;101963.97;5067422;28;20060;-88
2022/05/15 06:13:05;;;;;;;32.50;9.55;;;;;;;14.23;87.30;101967.25;5070108;28;20530;-87
2022/05/15 06:15:30;;;;;;;35.95;9.93;;;;;;;14.38;86.41;101970.19;5068117;28;20060;-88
2022/05/15 06:18:00;;;;;;;38.17;9.98;;;;;;;14.51;85.42;101970.63;5049124;28;20343;-88
2022/05/15 06:20:26;;;;;;;28.35;9.88;;;;;;;14.62;85.14;101961.44;5064625;28;20036;-87
2022/05/15 06:22:51;;;;;;;29.83;10.13;;;;;;;14.75;83.52;101974.47;5046373;28;20490;-87
2022/05/15 06:25:16;;;;;;;42.13;10.82;;;;;;;14.88;83.52;101971.31;5047046;28;20033;-88
2022/05/15 06:27:42;;;;;;;36.67;10.80;;;;;;;15.02;83.33;101969.84;5062937;28;20025;-87
2022/05/15 06:30:08;;;;;;;37.83;10.57;;;;;;;15.10;82.20;101976.13;5061439;28;20379;-88
2022/05/15 06:32:34;;;;;;;38.28;11.43;;;;;;;15.23;81.74;101972.13;5062983;28;20506;-86
2022/05/15 06:34:59;;;;;;;33.88;10.95;;;;;;;15.35;80.88;101975.34;5059790;28;20017;-87
2022/05/15 06:37:24;;;;;;;31.73;10.90;;;;;;;15.36;82.12;101960.84;5040970;28;20031;-86
2022/05/15 06:39:50;;;;;;;41.92;11.75;;;;;;;15.52;80.60;101976.22;5062217;28;20075;-87
2022/05/15 06:42:15;;;;;;;37.75;11.27;;;;;;;15.68;79.92;101978.91;5063024;28;20017;-87
2022/05/15 06:44:41;;;;;;;35.55;11.50;;;;;;;15.80;79.33;101964.16;5061609;28;20039;-85
2022/05/15 06:47:07;;;;;;;36.72;11.18;;;;;;;15.97;78.59;101966.81;5062231;28;20024;-88
2022/05/15 06:49:33;;;;;;;35.92;10.68;;;;;;;16.12;78.18;101969.69;5043810;28;20043;-88
2022/05/15 06:51:58;;;;;;;32.42;11.48;;;;;;;16.19;77.84;101963.47;5061354;28;20100;-86
2022/05/15 06:54:24;;;;;;;36.28;11.23;;;;;;;16.33;77.91;101961.91;5061532;28;20390;-88
2022/05/15 06:59:34;;;;;;;31.52;11.63;;;;;;;16.66;76.08;101966.38;5065246;28;20055;-89
2022/05/15 07:02:00;;;;;;;38.95;12.98;;;;;;;16.79;76.14;101964.78;5064309;28;20044;-88
2022/05/15 07:04:25;;;;;;;36.42;12.20;;;;;;;16.93;74.41;101963.25;5062039;28;20111;-87
2022/05/15 07:06:51;;;;;;;35.10;11.77;;;;;;;17.03;74.50;101959.50;5042778;28;20036;-87
2022/05/15 07:09:16;;;;;;;33.17;12.48;;;;;;;17.17;73.14;101960.59;5063130;28;20078;-88
2022/05/15 07:11:41;;;;;;;33.05;12.40;;;;;;;17.33;72.26;101969.44;5062460;28;20115;-89
2022/05/15 07:14:08;;;;;;;38.50;12.18;;;;;;;17.43;72.21;101963.81;5061740;28;20033;-89
2022/05/15 07:16:34;;;;;;;30.02;12.38;;;;;;;17.59;76.07;101962.84;5042057;28;20358;-90
2022/05/15 07:18:59;;;;;;;39.28;12.68;;;;;;;17.73;72.64;101966.63;5043498;28;20013;-90
2022/05/15 07:21:24;;;;;;;30.35;11.40;;;;;;;17.88;70.64;101964.00;5041182;28;20028;-92
2022/05/15 07:23:50;;;;;;;32.83;12.15;;;;;;;17.98;70.31;101969.16;5043681;28;20036;-89
2022/05/15 07:26:15;;;;;;;36.95;12.57;;;;;;;18.17;71.53;101971.34;5045253;28;20025;-91
2022/05/15 07:28:40;;;;;;;28.38;11.98;;;;;;;18.33;69.14;101977.59;5027173;28;20169;-88
2022/05/15 07:31:05;;;;;;;39.28;12.60;;;;;;;18.47;71.33;101981.38;5054023;28;20047;-86
2022/05/15 07:33:31;;;;;;;33.83;11.82;;;;;;;18.54;66.01;101980.44;5061459;28;20224;-87
2022/05/15 07:35:56;;;;;;;30.80;12.15;;;;;;;18.65;70.69;101968.28;5041801;28;20036;-83
2022/05/15 07:38:23;;;;;;;30.05;11.90;;;;;;;18.78;69.32;101983.88;5066245;28;20031;-85
2022/05/15 07:40:48;;;;;;;33.47;11.48;;;;;;;18.86;66.20;101975.69;5059944;28;20127;-85
2022/05/15 07:43:14;;;;;;;28.42;11.52;;;;;;;18.91;64.51;101984.09;5059094;28;20120;-84
2022/05/15 07:45:40;;;;;;;26.20;11.10;;;;;;;19.10;63.52;101968.28;5059744;28;20032;-79
2022/05/15 07:48:06;;;;;;;27.00;10.93;;;;;;;19.27;64.82;101969.72;5066225;28;20039;-85
2022/05/15 07:50:33;;;;;;;26.77;10.98;;;;;;;19.55;64.43;101971.66;5040658;28;20036;-84
2022/05/15 07:52:58;;;;;;;30.98;10.88;;;;;;;19.66;62.43;101963.03;5042181;28;20356;-80
2022/05/15 07:55:24;;;;;;;24.63;10.63;;;;;;;19.84;59.50;101978.03;5072829;28;20032;-80
2022/05/15 07:57:49;;;;;;;29.63;10.82;;;;;;;19.96;59.60;101970.19;5059233;28;20766;-80
2022/05/15 08:00:16;;;;;;;32.88;10.55;;;;;;;20.08;59.10;101971.34;5054528;28;20091;-80
2022/05/15 08:02:42;;;;;;;22.63;10.13;;;;;;;20.19;56.95;101970.78;5056895;28;20020;-80
2022/05/15 08:08:03;;;;;;;23.50;10.35;;;;;;;20.40;55.65;101963.63;5051357;28;20044;-80
2022/05/15 08:10:38;;;;;;;30.88;10.27;;;;;;;20.50;56.18;101967.69;5057995;28;20016;-84
2022/05/15 08:13:05;;;;;;;29.73;11.00;;;;;;;20.60;55.22;101961.88;5062138;28;20442;-85
2022/05/15 08:15:30;;;;;;;28.83;10.25;;;;;;;20.73;56.44;101949.44;5064470;28;20036;-85
2022/05/15 08:23:33;;;;;;;22.00;9.98;;;;;;;20.92;57.56;101948.69;5040987;28;20017;-87
2022/05/15 08:23:36;;;;;;;27.10;10.38;;;;;;;21.27;54.27;101947.78;5056948;28;20039;-84
2022/05/15 08:26:02;;;;;;;25.10;10.35;;;;;;;21.44;55.22;101946.31;5049871;28;20074;-85
2022/05/15 08:28:28;;;;;;;26.75;10.35;;;;;;;21.54;54.33;101932.38;5029844;28;20033;-85
2022/05/15 08:30:53;;;;;;;30.63;10.30;;;;;;;21.50;52.79;101945.50;5056383;28;20035;-85
2022/05/15 08:33:19;;;;;;;25.48;10.27;;;;;;;21.63;55.41;101939.28;5055408;28;20035;-86
2022/05/15 08:35:44;;;;;;;29.67;9.85;;;;;;;21.71;54.35;101938.25;5034842;28;20028;-81
2022/05/15 08:38:10;;;;;;;21.15;9.65;;;;;;;21.72;52.66;101939.91;5048053;28;20028;-82
2022/05/15 08:40:47;;;;;;;26.98;10.23;;;;;;;21.72;52.19;101932.56;5054740;28;20468;-81
2022/05/15 08:43:13;;;;;;;26.13;9.25;;;;;;;21.96;52.22;101922.97;5062115;28;20017;-82
2022/05/15 08:45:59;;;;;;;33.33;9.45;;;;;;;22.12;51.32;101915.41;5061977;28;20010;-85
2022/05/15 08:48:26;;;;;;;24.85;9.07;;;;;;;22.22;48.62;101921.25;5050500;28;20033;-80
2022/05/15 08:50:53;;;;;;;22.27;9.32;;;;;;;22.22;47.89;101912.25;5036135;28;20075;-80
2022/05/15 08:53:28;;;;;;;25.63;9.75;;;;;;;22.33;50.69;101917.88;5038006;28;20090;-82
2022/05/15 08:55:57;;;;;;;24.05;8.85;;;;;;;22.55;49.61;101909.44;5042331;28;20032;-81
2022/05/15 08:58:37;;;;;;;26.92;8.60;;;;;;;22.70;47.23;101915.44;5053980;28;20095;-80
2022/05/15 09:01:08;;;;;;;25.92;8.95;;;;;;;22.81;45.61;101915.81;5047331;28;20118;-83
2022/05/15 09:03:40;;;;;;;;;;;;;;;22.94;47.39;101918.50;5048980;28;20555;-84
2022/05/15 09:06:25;;;;;;;22.52;8.18;;;;;;;22.99;45.20;101906.94;5028886;28;19913;-85
2022/05/15 09:09:02;;;;;;;19.38;7.78;;;;;;;23.00;44.46;101912.19;5052259;28;20392;-86
2022/05/15 09:12:06;;;;;;;25.42;7.82;;;;;;;23.20;44.44;101922.13;5028164;28;20454;-86
2022/05/15 09:14:59;;;;;;;20.20;6.82;;;;;;;23.33;45.05;101922.06;5031046;28;20132;-86
2022/05/15 09:17:34;;;;;;;21.08;6.88;;;;;;;23.46;43.25;101916.50;5048335;28;20305;-85
2022/05/15 09:20:04;;;;;;;25.42;6.88;;;;;;;23.48;42.98;101915.47;5049079;28;20043;-84
2022/05/15 09:22:42;;;;;;;23.40;6.75;;;;;;;23.59;42.25;101914.72;5044230;28;20039;-84
2022/05/15 09:25:21;;;;;;;22.17;7.07;;;;;;;23.70;41.99;101908.56;5051640;28;20069;-85
2022/05/15 09:28:03;;;;;;;18.63;7.28;;;;;;;23.79;42.70;101912.66;5048619;28;20031;-85
2022/05/15 09:30:36;;;;;;;26.45;6.40;;;;;;;23.94;41.94;101912.38;5047678;28;20532;-86
2022/05/15 09:33:03;;;;;;;19.38;6.22;;;;;;;24.11;41.05;101909.06;5048751;28;20107;-84
2022/05/15 09:35:33;;;;;;;23.73;6.75;;;;;;;24.24;40.39;101899.88;5051214;28;20033;-85
2022/05/15 09:43:31;;;;;;;21.02;6.18;;;;;;;24.33;40.62;101904.81;5050804;28;20050;-81
2022/05/15 09:43:35;;;;;;;20.67;5.53;;;;;;;24.50;38.70;101893.28;5058763;28;20136;-81
2022/05/15 09:46:15;;;;;;;13.13;5.85;;;;;;;24.48;36.00;101896.25;5059077;28;20079;-81
2022/05/15 09:49:16;;;;;;;21.02;6.25;;;;;;;24.43;36.90;101893.38;5041927;28;20009;-86
2022/05/15 09:51:54;;;;;;;17.98;6.15;;;;;;;24.52;36.83;101885.69;5049773;28;20016;-87
2022/05/15 09:54:34;;;;;;;19.90;5.90;;;;;;;24.65;36.61;101880.09;5052012;28;20036;-84
2022/05/15 09:57:14;;;;;;;23.48;6.22;;;;;;;24.64;36.56;101883.88;5056465;28;20135;-86
2022/05/15 09:59:41;;;;;;;21.13;5.80;;;;;;;24.72;36.49;101875.38;5041601;28;20040;-82
2022/05/15 10:02:17;;;;;;;18.48;6.15;;;;;;;24.90;35.84;101874.50;5059292;28;20099;-80
2022/05/15 10:04:47;;;;;;;16.67;6.05;;;;;;;24.92;34.05;101871.56;5058014;28;20023;-82
2022/05/15 10:07:36;;;;;;;25.27;6.35;;;;;;;25.10;35.22;101878.84;5040873;28;20189;-81
2022/05/15 10:10:12;;;;;;;16.13;6.18;;;;;;;25.11;36.47;101885.97;5055148;28;20036;-82
2022/05/15 10:12:39;;;;;;;22.67;5.95;;;;;;;25.17;34.83;101890.53;5044535;28;20040;-83
2022/05/15 10:15:07;;;;;;;20.70;5.90;;;;;;;25.17;34.49;101887.81;5057691;28;20051;-83
2022/05/15 10:17:33;;;;;;;19.95;5.70;;;;;;;25.33;33.20;101880.84;5058939;28;20502;-82
2022/05/15 10:20:10;;;;;;;19.40;5.05;;;;;;;25.52;34.53;101867.91;5060069;28;20040;-81
2022/05/15 10:22:45;;;;;;;16.50;5.50;;;;;;;25.56;34.13;101874.59;5040145;28;20820;-81
2022/05/15 10:25:25;;;;;;;29.15;5.90;;;;;;;25.76;34.81;101868.75;5060908;28;20024;-86
2022/05/15 10:28:27;;;;;;;16.33;5.75;;;;;;;25.83;34.31;101869.47;5063292;28;20475;-83
2022/05/15 10:31:01;;;;;;;21.05;5.85;;;;;;;25.85;33.97;101859.13;5076267;28;20028;-85
2022/05/15 10:33:31;;;;;;;17.63;5.10;;;;;;;25.86;33.43;101859.94;5060713;28;20626;-84
2022/05/15 10:36:06;;;;;;;15.00;5.00;;;;;;;25.87;34.60;101858.88;5058580;28;20071;-86
2022/05/15 10:38:38;;;;;;;18.48;5.05;;;;;;;25.85;32.99;101859.13;5052880;28;20228;-85
2022/05/15 10:41:15;;;;;;;20.05;5.18;;;;;;;25.82;32.73;101862.31;5058824;28;20051;-85
2022/05/15 10:43:58;;;;;;;15.75;4.47;;;;;;;26.00;33.96;101866.03;5060118;28;20050;-85
2022/05/15 10:46:33;;;;;;;19.15;4.93;;;;;;;25.98;32.11;101854.47;5056460;28;20028;-85
2022/05/15 10:49:16;;;;;;;17.80;5.38;;;;;;;26.13;32.39;101846.59;5038763;28;20048;-81
2022/05/15 10:52:18;;;;;;;15.88;5.15;;;;;;;26.21;32.97;101831.72;5056898;28;20046;-82
2022/05/15 10:58:02;;;;;;;15.70;4.70;;;;;;;26.55;31.33;101837.31;5057046;28;20039;-81
2022/05/15 11:00:39;;;;;;;14.95;4.50;;;;;;;26.51;32.02;101831.50;5060308;28;20071;-82
2022/05/15 11:03:14;;;;;;;20.00;4.57;;;;;;;26.52;31.70;101826.84;5059394;28;20115;-81
2022/05/15 11:05:54;;;;;;;12.25;3.85;;;;;;;26.64;30.24;101844.09;5055834;28;20087;-82
2022/05/15 11:08:42;;;;;;;14.93;4.00;;;;;;;26.53;30.64;101834.00;5056998;28;20177;-79
2022/05/15 11:11:25;;;;;;;21.65;3.92;;;;;;;26.61;30.11;101833.59;5056547;28;20375;-80
2022/05/15 11:14:17;;;;;;;13.82;3.78;;;;;;;26.66;31.46;101827.41;5059652;28;20648;-82
2022/05/15 11:17:03;;;;;;;13.00;3.95;;;;;;;26.90;31.99;101830.84;5024024;28;20125;-83
2022/05/15 11:19:40;;;;;;;13.75;4.25;;;;;;;26.87;30.61;101834.09;5043507;28;20480;-83
2022/05/15 11:22:23;;;;;;;16.45;3.55;;;;;;;27.11;31.43;101832.06;5042421;28;20021;-80
2022/05/15 11:24:59;;;;;;;13.85;3.72;;;;;;;27.13;29.67;101835.38;5055308;28;20051;-81
2022/05/15 11:27:48;;;;;;;17.40;4.18;;;;;;;27.10;29.28;101822.16;5064326;28;20517;-81
2022/05/15 11:30:19;;;;;;;15.38;4.53;;;;;;;27.03;28.59;101810.53;5081642;28;20062;-81
2022/05/15 11:32:44;;;;;;;16.83;4.63;;;;;;;27.25;29.21;101811.44;5080499;28;20028;-83
2022/05/15 11:35:21;;;;;;;11.40;3.83;;;;;;;27.21;29.22;101809.44;5080623;28;20461;-83
2022/05/15 11:37:56;;;;;;;16.65;4.53;;;;;;;27.29;30.03;101804.44;5071283;28;20021;-80
2022/05/15 11:40:39;;;;;;;20.15;4.38;;;;;;;27.35;29.55;101797.91;5047339;28;20532;-81
2022/05/15 11:43:26;;;;;;;16.00;3.58;;;;;;;27.23;29.54;101788.09;5038826;28;20036;-81
2022/05/15 11:45:54;;;;;;;14.93;4.47;;;;;;;27.25;28.75;101794.16;5049099;28;20131;-81
2022/05/15 11:48:23;;;;;;;15.60;4.63;;;;;;;27.25;27.90;101794.16;5038209;28;20016;-81